Time;durP1;ratioP1;P1;durP2;ratioP2;P2;SDS_P1;SDS_P2;PMS_P1;PMS_P2;Temp;Humidity;BMP_temperature;BMP_pressure;BME280_temperature;BME280_humidity;BME280_pressure;Samples;Min_cycle;Max_cycle;Signal;HPM_P1;HPM_P2
2023/04/16 00:01:38;;;;;;;12.13;6.18;;;6.40;99.90;;;;;;4987789;28;20038;-65
2023/04/16 00:04:04;;;;;;;12.07;6.43;;;6.40;99.90;;;;;;4988426;28;20057;-65
2023/04/16 00:06:30;;;;;;;13.27;7.10;;;6.40;99.90;;;;;;4987570;28;21933;-69
2023/04/16 00:08:56;;;;;;;14.65;7.13;;;6.40;99.90;;;;;;4988177;28;20042;-64
2023/04/16 00:11:22;;;;;;;16.23;7.00;;;6.40;99.90;;;;;;4988972;28;20048;-65
2023/04/16 00:13:48;;;;;;;11.85;6.35;;;6.40;99.90;;;;;;4987109;28;20613;-66
2023/04/16 00:16:14;;;;;;;12.82;6.47;;;6.50;99.90;;;;;;4987724;28;20505;-66
2023/04/16 00:18:39;;;;;;;13.40;6.85;;;6.50;99.90;;;;;;4987175;28;20301;-65
2023/04/16 00:21:06;;;;;;;11.38;6.20;;;6.50;99.90;;;;;;4987548;28;20038;-65
2023/04/16 00:23:31;;;;;;;14.57;6.57;;;6.50;99.90;;;;;;4987383;28;20118;-69
2023/04/16 00:25:58;;;;;;;12.20;6.53;;;6.50;99.90;;;;;;4986215;28;20137;-64
2023/04/16 00:28:25;;;;;;;14.35;6.32;;;6.50;99.90;;;;;;4968943;28;20078;-65
2023/04/16 00:30:50;;;;;;;11.35;5.85;;;6.50;99.90;;;;;;4988799;28;20030;-65
2023/04/16 00:33:16;;;;;;;10.63;5.95;;;6.50;99.90;;;;;;4988542;28;20054;-65
2023/04/16 00:35:45;;;;;;;11.13;5.65;;;6.50;99.90;;;;;;4988618;28;20031;-66
2023/04/16 00:38:10;;;;;;;13.55;6.65;;;6.50;99.90;;;;;;4988887;28;20042;-65
2023/04/16 00:40:37;;;;;;;13.75;6.72;;;6.60;99.90;;;;;;4988141;28;20406;-65
2023/04/16 00:43:02;;;;;;;11.35;6.45;;;6.60;99.90;;;;;;4989395;28;20078;-65
2023/04/16 00:45:28;;;;;;;13.02;6.43;;;6.60;99.90;;;;;;4988449;28;20057;-66
2023/04/16 00:47:55;;;;;;;10.82;5.88;;;6.60;99.90;;;;;;4987301;28;20126;-65
2023/04/16 00:50:21;;;;;;;11.90;6.15;;;6.60;99.90;;;;;;4989261;28;20478;-65
2023/04/16 00:52:48;;;;;;;11.52;6.30;;;6.60;99.90;;;;;;4987545;28;20022;-65
2023/04/16 00:55:17;;;;;;;11.20;6.10;;;6.60;99.90;;;;;;4988562;28;20042;-65
2023/04/16 00:57:43;;;;;;;13.23;6.60;;;6.60;99.90;;;;;;4987799;28;20034;-67
2023/04/16 01:00:09;;;;;;;17.30;6.20;;;6.60;99.90;;;;;;4987732;28;20045;-66
2023/04/16 01:02:35;;;;;;;13.32;6.88;;;6.60;99.90;;;;;;4983416;28;21793;-67
2023/04/16 01:05:02;;;;;;;13.90;6.80;;;6.60;99.90;;;;;;4987793;28;20152;-65
2023/04/16 01:07:28;;;;;;;13.63;6.50;;;6.60;99.90;;;;;;4983709;28;20537;-65
2023/04/16 01:09:54;;;;;;;13.40;7.03;;;6.60;99.90;;;;;;4987659;28;20038;-65
2023/04/16 01:12:19;;;;;;;18.33;7.05;;;6.60;99.90;;;;;;4988363;28;20562;-65
2023/04/16 01:14:45;;;;;;;15.13;7.40;;;6.60;99.90;;;;;;4986235;28;20034;-66
2023/04/16 01:17:11;;;;;;;12.35;6.35;;;6.60;99.90;;;;;;4986619;28;20031;-65
2023/04/16 01:19:37;;;;;;;13.68;6.65;;;6.60;99.90;;;;;;4986040;28;20041;-65
2023/04/16 01:22:03;;;;;;;15.63;6.82;;;6.60;99.90;;;;;;4987690;28;20038;-65
2023/04/16 01:24:30;;;;;;;14.85;6.75;;;6.70;99.90;;;;;;4986781;28;20042;-66
2023/04/16 01:26:58;;;;;;;14.63;6.80;;;6.70;99.90;;;;;;4984990;28;20408;-65
2023/04/16 01:29:24;;;;;;;13.18;6.65;;;6.70;99.90;;;;;;4987590;28;20379;-65
2023/04/16 01:31:49;;;;;;;13.07;6.50;;;6.70;99.90;;;;;;4986553;28;20026;-66
2023/04/16 01:34:15;;;;;;;13.40;6.57;;;6.70;99.90;;;;;;4985320;28;20034;-65
2023/04/16 01:36:40;;;;;;;15.13;6.20;;;6.70;99.90;;;;;;4984939;28;20041;-65
2023/04/16 01:39:08;;;;;;;11.95;5.63;;;6.70;99.90;;;;;;4987309;28;20046;-65
2023/04/16 01:41:35;;;;;;;11.45;5.85;;;6.70;99.90;;;;;;4986578;28;20031;-68
2023/04/16 01:44:00;;;;;;;13.40;6.32;;;6.70;99.90;;;;;;4987263;28;20153;-65
2023/04/16 01:46:29;;;;;;;11.95;5.90;;;6.70;99.90;;;;;;4988889;28;20121;-65
2023/04/16 01:48:56;;;;;;;11.50;5.82;;;6.70;99.90;;;;;;4985589;28;20034;-66
2023/04/16 01:51:22;;;;;;;12.40;5.93;;;6.70;99.90;;;;;;4988817;28;20034;-65
2023/04/16 01:53:49;;;;;;;12.93;5.90;;;6.70;99.90;;;;;;4985372;28;20030;-65
2023/04/16 01:56:14;;;;;;;12.65;5.93;;;6.80;99.90;;;;;;4988694;28;20042;-65
2023/04/16 01:58:41;;;;;;;11.93;5.68;;;6.80;99.90;;;;;;4984006;28;20618;-68
2023/04/16 02:01:07;;;;;;;11.68;5.82;;;6.80;99.90;;;;;;4981101;28;20034;-65
2023/04/16 02:03:33;;;;;;;11.18;5.22;;;6.80;99.90;;;;;;4982718;28;20050;-68
2023/04/16 02:06:00;;;;;;;13.90;5.93;;;6.80;99.90;;;;;;4985922;28;20125;-68
2023/04/16 02:08:25;;;;;;;10.90;5.50;;;6.80;99.90;;;;;;4984641;28;20430;-65
2023/04/16 02:10:51;;;;;;;9.77;4.80;;;6.80;99.90;;;;;;4986097;28;20030;-66
2023/04/16 02:13:17;;;;;;;9.65;4.78;;;6.80;99.90;;;;;;4987427;28;20026;-65
2023/04/16 02:15:49;;;;;;;10.35;4.93;;;6.80;99.90;;;;;;4990271;28;20034;-65
2023/04/16 02:18:15;;;;;;;9.45;4.50;;;6.80;99.90;;;;;;4987903;28;20049;-65
2023/04/16 02:20:42;;;;;;;7.88;4.10;;;6.80;99.90;;;;;;4990393;28;20042;-66
2023/04/16 02:23:09;;;;;;;9.25;4.45;;;6.80;99.90;;;;;;4990738;28;20128;-65
2023/04/16 02:25:42;;;;;;;8.80;4.75;;;6.90;99.90;;;;;;5005297;28;20036;-68
2023/04/16 02:28:09;;;;;;;10.65;5.00;;;6.90;99.90;;;;;;4989468;28;20042;-65
2023/04/16 02:30:36;;;;;;;8.80;4.25;;;6.90;99.90;;;;;;4988820;28;20034;-68
2023/04/16 02:33:04;;;;;;;9.60;4.75;;;6.90;99.90;;;;;;4989598;28;20034;-65
2023/04/16 02:35:31;;;;;;;9.48;4.55;;;6.90;99.90;;;;;;4989091;28;20018;-66
2023/04/16 02:37:57;;;;;;;8.82;4.25;;;6.90;99.90;;;;;;4989448;28;20046;-66
2023/04/16 02:40:22;;;;;;;8.10;4.15;;;6.90;99.90;;;;;;4989769;28;20705;-65
2023/04/16 02:42:48;;;;;;;7.93;4.10;;;6.90;99.90;;;;;;4990283;28;20611;-65
2023/04/16 02:45:14;;;;;;;9.60;4.28;;;6.90;99.90;;;;;;4990529;28;20471;-65
2023/04/16 02:47:39;;;;;;;8.30;3.80;;;7.00;99.90;;;;;;4980765;28;20041;-68
2023/04/16 02:50:06;;;;;;;8.55;3.88;;;7.00;99.90;;;;;;4987408;28;20034;-66
2023/04/16 02:52:32;;;;;;;7.32;3.70;;;7.00;99.90;;;;;;4990285;28;20425;-65
2023/04/16 02:54:58;;;;;;;8.85;3.80;;;7.00;99.90;;;;;;4990765;28;20048;-66
2023/04/16 02:57:24;;;;;;;8.60;3.70;;;7.00;99.90;;;;;;4989732;28;20026;-65
2023/04/16 02:59:49;;;;;;;10.45;4.13;;;6.90;99.90;;;;;;4986769;28;20457;-66
2023/04/16 03:02:15;;;;;;;6.07;3.15;;;7.00;99.90;;;;;;4989817;28;20582;-65
2023/04/16 03:04:41;;;;;;;6.53;3.20;;;7.00;99.90;;;;;;4990080;28;20030;-68
2023/04/16 03:07:08;;;;;;;8.35;3.38;;;7.00;99.90;;;;;;4991047;28;20136;-65
2023/04/16 03:09:34;;;;;;;5.38;2.83;;;7.10;99.90;;;;;;4987525;28;20513;-65
2023/04/16 03:12:01;;;;;;;7.53;3.35;;;7.10;99.90;;;;;;4988986;28;20053;-66
2023/04/16 03:14:26;;;;;;;5.78;3.13;;;7.10;99.90;;;;;;4989666;28;20092;-63
2023/04/16 03:16:52;;;;;;;6.30;3.40;;;7.10;99.90;;;;;;4987235;28;20033;-64
2023/04/16 03:19:18;;;;;;;6.13;3.05;;;7.10;99.90;;;;;;4989458;28;20039;-64
2023/04/16 03:21:43;;;;;;;7.07;3.45;;;7.10;99.90;;;;;;4989255;28;20038;-63
2023/04/16 03:24:09;;;;;;;6.40;3.08;;;7.10;99.90;;;;;;4990596;28;20034;-65
2023/04/16 03:26:35;;;;;;;6.07;3.33;;;7.10;99.90;;;;;;4987648;28;20378;-64
2023/04/16 03:29:03;;;;;;;5.82;3.00;;;7.10;99.90;;;;;;4987962;28;20658;-64
2023/04/16 03:31:29;;;;;;;6.55;3.40;;;7.20;99.90;;;;;;4990164;28;20565;-64
2023/04/16 03:33:55;;;;;;;6.05;3.22;;;7.20;99.90;;;;;;4988158;28;20121;-64
2023/04/16 03:36:21;;;;;;;6.70;3.35;;;7.20;99.90;;;;;;4988639;28;20107;-64
2023/04/16 03:38:50;;;;;;;6.32;3.38;;;7.20;99.90;;;;;;4986600;28;20184;-65
2023/04/16 03:41:16;;;;;;;6.93;3.28;;;7.20;99.90;;;;;;4989947;28;20109;-64
2023/04/16 03:43:41;;;;;;;6.03;3.03;;;7.20;99.90;;;;;;4989582;28;20172;-67
2023/04/16 03:46:07;;;;;;;6.40;3.03;;;7.20;99.90;;;;;;4988493;28;20041;-63
2023/04/16 03:48:32;;;;;;;5.65;3.35;;;7.20;99.90;;;;;;4988457;28;20052;-65
2023/04/16 03:50:58;;;;;;;7.53;3.53;;;7.30;99.90;;;;;;4987985;28;20033;-64
2023/04/16 03:53:24;;;;;;;7.40;3.58;;;7.30;99.90;;;;;;4989047;28;20065;-64
2023/04/16 03:55:50;;;;;;;6.13;3.10;;;7.30;99.90;;;;;;4987036;28;20041;-64
2023/04/16 03:58:16;;;;;;;6.82;3.40;;;7.30;99.90;;;;;;4989164;28;20459;-64
2023/04/16 04:00:42;;;;;;;8.13;4.07;;;7.30;99.90;;;;;;4987589;28;20050;-68
2023/04/16 04:03:09;;;;;;;7.75;3.85;;;7.40;99.90;;;;;;4971592;28;20030;-66
2023/04/16 04:05:36;;;;;;;9.25;4.32;;;7.30;99.90;;;;;;4986733;28;20423;-66
2023/04/16 04:08:02;;;;;;;8.10;4.07;;;7.30;99.90;;;;;;4987695;28;20058;-65
2023/04/16 04:10:31;;;;;;;7.60;3.90;;;7.30;99.90;;;;;;4986437;28;20116;-65
2023/04/16 04:12:56;;;;;;;8.15;4.10;;;7.30;99.90;;;;;;4988582;28;20419;-65
2023/04/16 04:15:22;;;;;;;8.52;3.65;;;7.30;99.90;;;;;;4988063;28;20030;-65
2023/04/16 04:17:48;;;;;;;7.85;3.40;;;7.30;99.90;;;;;;4987441;28;20092;-64
2023/04/16 04:20:13;;;;;;;8.73;3.67;;;7.30;99.90;;;;;;4985724;28;20360;-65
2023/04/16 04:22:39;;;;;;;8.23;4.07;;;7.30;99.90;;;;;;4988346;28;20034;-65
2023/04/16 04:25:05;;;;;;;6.07;3.38;;;7.30;99.90;;;;;;4969801;28;20023;-65
2023/04/16 04:27:30;;;;;;;6.60;3.40;;;7.30;99.90;;;;;;4984697;28;20030;-64
2023/04/16 04:29:57;;;;;;;7.68;3.15;;;7.30;99.90;;;;;;4986926;28;20030;-66
2023/04/16 04:32:22;;;;;;;8.48;3.67;;;7.30;99.90;;;;;;4988927;28;20023;-65
2023/04/16 04:34:48;;;;;;;7.60;2.63;;;7.30;99.90;;;;;;4987944;28;20034;-64
2023/04/16 04:37:13;;;;;;;5.30;2.88;;;7.30;99.90;;;;;;4987626;28;20037;-65
2023/04/16 04:39:39;;;;;;;7.30;3.45;;;7.30;99.90;;;;;;4987378;28;20725;-66
2023/04/16 04:42:05;;;;;;;5.45;2.67;;;7.40;99.90;;;;;;4987554;28;20117;-65
2023/04/16 04:44:31;;;;;;;5.63;2.72;;;7.30;99.90;;;;;;4988111;28;20026;-65
2023/04/16 04:46:56;;;;;;;5.43;2.75;;;7.30;99.90;;;;;;4985276;28;20137;-64
2023/04/16 04:49:22;;;;;;;5.70;2.92;;;7.40;99.90;;;;;;4986960;28;20060;-65
2023/04/16 04:51:47;;;;;;;6.38;2.80;;;7.30;99.90;;;;;;4985435;28;20037;-67
2023/04/16 04:54:13;;;;;;;7.80;3.30;;;7.30;99.90;;;;;;4988338;28;20034;-64
2023/04/16 04:56:39;;;;;;;5.45;3.00;;;7.40;99.90;;;;;;4987957;28;20038;-65
2023/04/16 04:59:04;;;;;;;7.07;3.42;;;7.40;99.90;;;;;;4988128;28;20602;-66
2023/04/16 05:01:30;;;;;;;5.65;2.72;;;7.40;99.90;;;;;;4984143;28;20127;-64
2023/04/16 05:03:55;;;;;;;6.90;3.30;;;7.40;99.90;;;;;;4984487;28;20030;-65
2023/04/16 05:06:21;;;;;;;7.15;3.50;;;7.40;99.90;;;;;;4969962;28;20026;-66
2023/04/16 05:08:47;;;;;;;6.35;2.83;;;7.40;99.90;;;;;;4984641;28;20082;-68
2023/04/16 05:11:12;;;;;;;6.70;3.22;;;7.40;99.90;;;;;;4995218;28;20034;-65
2023/04/16 05:13:38;;;;;;;6.70;3.13;;;7.30;99.90;;;;;;4986073;28;20041;-65
2023/04/16 05:16:04;;;;;;;4.97;2.50;;;7.30;99.90;;;;;;4990069;28;20057;-65
2023/04/16 05:18:31;;;;;;;6.22;3.10;;;7.40;99.90;;;;;;4988835;28;20038;-66
2023/04/16 05:20:57;;;;;;;7.32;3.00;;;7.40;99.90;;;;;;4987608;28;20038;-65
2023/04/16 05:23:22;;;;;;;6.50;3.10;;;7.40;99.90;;;;;;4990976;28;20422;-65
2023/04/16 05:25:48;;;;;;;6.95;3.00;;;7.40;99.90;;;;;;4989250;28;20040;-69
2023/04/16 05:28:14;;;;;;;6.00;2.92;;;7.40;99.90;;;;;;4988236;28;20082;-65
2023/04/16 05:30:39;;;;;;;7.28;3.05;;;7.40;99.90;;;;;;4988847;28;20467;-66
2023/04/16 05:33:05;;;;;;;7.18;2.92;;;7.50;99.90;;;;;;5004997;28;20117;-68
2023/04/16 05:35:30;;;;;;;6.00;2.78;;;7.50;99.90;;;;;;4970334;28;20497;-65
2023/04/16 05:37:56;;;;;;;6.10;2.78;;;7.50;99.90;;;;;;4982383;28;20034;-64
2023/04/16 05:40:22;;;;;;;5.03;2.80;;;7.50;99.90;;;;;;4988582;28;20045;-65
2023/04/16 05:42:48;;;;;;;6.07;2.72;;;7.60;99.90;;;;;;4988426;28;20114;-68
2023/04/16 05:45:13;;;;;;;5.47;2.78;;;7.60;99.90;;;;;;4988833;28;20085;-65
2023/04/16 05:47:39;;;;;;;6.65;3.20;;;7.60;99.90;;;;;;4986651;28;20030;-65
2023/04/16 05:50:05;;;;;;;6.30;3.15;;;7.60;99.90;;;;;;4985886;28;20409;-66
2023/04/16 05:52:31;;;;;;;7.32;3.30;;;7.60;99.90;;;;;;4991959;28;20104;-66
2023/04/16 05:55:00;;;;;;;6.72;2.92;;;7.60;99.90;;;;;;4991438;28;20446;-65
2023/04/16 05:57:26;;;;;;;5.85;3.00;;;7.60;99.90;;;;;;4992685;28;20023;-65
2023/04/16 05:59:52;;;;;;;6.97;3.33;;;7.60;99.90;;;;;;4990492;28;20081;-65
2023/04/16 06:02:18;;;;;;;6.78;3.30;;;7.60;99.90;;;;;;4990610;28;20042;-64
2023/04/16 06:04:44;;;;;;;5.97;2.97;;;7.70;99.90;;;;;;4992205;28;20032;-63
2023/04/16 06:07:10;;;;;;;6.80;3.60;;;7.70;99.90;;;;;;4991292;28;20129;-64
2023/04/16 06:09:35;;;;;;;8.80;4.03;;;7.70;99.90;;;;;;4991418;28;20397;-65
2023/04/16 06:12:01;;;;;;;7.13;3.92;;;7.80;99.90;;;;;;4990316;28;20030;-64
2023/04/16 06:14:27;;;;;;;7.05;3.67;;;7.80;99.90;;;;;;4992295;28;20475;-64
2023/04/16 06:16:52;;;;;;;7.53;3.75;;;7.80;99.90;;;;;;4990507;28;20443;-67
2023/04/16 06:19:18;;;;;;;9.52;4.32;;;7.90;99.90;;;;;;4990073;28;20416;-64
2023/04/16 06:21:44;;;;;;;8.00;3.95;;;7.90;99.90;;;;;;4990517;28;20037;-66
2023/04/16 06:24:10;;;;;;;7.80;3.72;;;7.90;99.90;;;;;;4983267;28;20418;-65
2023/04/16 06:26:35;;;;;;;9.35;4.32;;;8.00;99.90;;;;;;4990873;28;20109;-65
2023/04/16 06:29:01;;;;;;;7.85;4.00;;;8.10;99.90;;;;;;4990580;28;20169;-65
2023/04/16 06:31:27;;;;;;;9.80;4.82;;;8.10;99.90;;;;;;4989485;28;20026;-64
2023/04/16 06:33:52;;;;;;;9.30;4.35;;;8.00;99.90;;;;;;4987524;28;20387;-67
2023/04/16 06:36:18;;;;;;;11.57;5.22;;;8.00;99.90;;;;;;4989277;28;20150;-66
2023/04/16 06:38:43;;;;;;;12.55;4.60;;;8.00;99.90;;;;;;4988586;28;20038;-64
2023/04/16 06:41:09;;;;;;;10.45;4.97;;;8.00;99.90;;;;;;4987834;28;20034;-66
2023/04/16 06:43:35;;;;;;;10.80;5.25;;;7.90;99.90;;;;;;4989638;28;20038;-66
2023/04/16 06:46:01;;;;;;;12.25;5.22;;;8.00;99.90;;;;;;4989208;28;20359;-65
2023/04/16 06:48:27;;;;;;;10.30;4.75;;;8.00;99.90;;;;;;4989813;28;20025;-64
2023/04/16 06:50:53;;;;;;;12.23;5.47;;;8.00;99.90;;;;;;4990995;28;20034;-69
2023/04/16 06:53:19;;;;;;;13.00;5.63;;;8.00;99.90;;;;;;4989522;28;20030;-66
2023/04/16 06:55:44;;;;;;;13.05;6.13;;;8.10;99.90;;;;;;4991590;28;20156;-66
2023/04/16 06:58:10;;;;;;;13.25;6.25;;;8.10;99.90;;;;;;4971296;28;20109;-65
2023/04/16 07:00:36;;;;;;;13.88;6.43;;;8.10;99.90;;;;;;4986962;28;20129;-66
2023/04/16 07:03:02;;;;;;;13.57;6.80;;;8.10;99.90;;;;;;4989897;28;20026;-65
2023/04/16 07:05:27;;;;;;;16.17;6.90;;;8.10;99.90;;;;;;4990302;28;20458;-64
2023/04/16 07:07:55;;;;;;;16.17;7.07;;;8.10;99.90;;;;;;4988274;28;20054;-68
2023/04/16 07:10:21;;;;;;;14.50;7.03;;;8.20;99.90;;;;;;4987815;28;20050;-65
2023/04/16 07:12:46;;;;;;;13.68;6.60;;;8.20;99.90;;;;;;4984500;28;20254;-64
2023/04/16 07:15:12;;;;;;;17.20;8.30;;;8.20;99.90;;;;;;4988189;28;20030;-64
2023/04/16 07:17:38;;;;;;;18.67;7.22;;;8.20;99.90;;;;;;4986941;28;20030;-65
2023/04/16 07:20:04;;;;;;;15.15;7.00;;;8.40;99.90;;;;;;4987593;28;20030;-65
2023/04/16 07:22:29;;;;;;;16.35;7.70;;;8.40;99.90;;;;;;4987182;28;20050;-65
2023/04/16 07:24:55;;;;;;;18.00;7.13;;;8.40;99.90;;;;;;4987128;28;20038;-67
2023/04/16 07:27:21;;;;;;;16.85;7.47;;;8.50;99.90;;;;;;4985639;28;20030;-65
2023/04/16 07:29:49;;;;;;;18.27;7.32;;;8.50;99.90;;;;;;4987346;28;20038;-67
2023/04/16 07:32:14;;;;;;;15.80;7.57;;;8.40;99.90;;;;;;4989937;28;20018;-65
2023/04/16 07:34:40;;;;;;;18.10;8.30;;;8.40;99.90;;;;;;5005520;28;20045;-65
2023/04/16 07:37:06;;;;;;;15.85;7.85;;;8.40;99.90;;;;;;4990069;28;20360;-64
2023/04/16 07:39:31;;;;;;;15.63;7.45;;;8.40;99.90;;;;;;4990814;28;20042;-66
2023/04/16 07:41:57;;;;;;;14.98;7.40;;;8.40;99.90;;;;;;4989063;28;20058;-69
2023/04/16 07:44:22;;;;;;;16.52;7.60;;;8.40;99.90;;;;;;4990745;28;20549;-65
2023/04/16 07:46:48;;;;;;;16.23;8.15;;;8.50;99.90;;;;;;4990194;28;20048;-66
2023/04/16 07:49:14;;;;;;;18.77;8.15;;;8.50;99.90;;;;;;4989249;28;20193;-66
2023/04/16 07:51:40;;;;;;;18.35;8.00;;;8.50;99.90;;;;;;4990599;28;20033;-66
2023/04/16 07:54:05;;;;;;;16.13;8.13;;;8.50;99.90;;;;;;4989682;28;20102;-66
2023/04/16 07:56:31;;;;;;;16.33;8.02;;;8.50;99.90;;;;;;4978267;28;20113;-66
2023/04/16 07:58:57;;;;;;;17.67;8.57;;;8.40;99.90;;;;;;4989022;28;20379;-69
2023/04/16 08:01:22;;;;;;;18.55;8.68;;;8.40;99.90;;;;;;4993533;28;20156;-66
2023/04/16 08:03:48;;;;;;;17.52;8.23;;;8.50;99.90;;;;;;4988820;28;20030;-64
2023/04/16 08:06:13;;;;;;;16.98;8.75;;;8.50;99.90;;;;;;4989336;28;20036;-64
2023/04/16 08:08:39;;;;;;;18.90;9.32;;;8.50;99.90;;;;;;4989875;28;20089;-66
2023/04/16 08:11:05;;;;;;;19.33;9.27;;;8.50;99.90;;;;;;4988515;28;20034;-65
2023/04/16 08:13:30;;;;;;;13.98;6.90;;;8.50;99.90;;;;;;4989605;28;20451;-65
2023/04/16 08:15:56;;;;;;;14.55;7.72;;;8.60;99.90;;;;;;4989880;28;20030;-68
2023/04/16 08:18:22;;;;;;;17.73;8.35;;;8.60;99.90;;;;;;4988024;28;20084;-64
2023/04/16 08:20:47;;;;;;;16.27;6.82;;;8.60;99.90;;;;;;4989086;28;20456;-65
2023/04/16 08:23:13;;;;;;;12.63;6.97;;;8.60;99.90;;;;;;4988374;28;20037;-66
2023/04/16 08:25:39;;;;;;;15.20;7.22;;;8.60;99.90;;;;;;4989567;28;20105;-66
2023/04/16 08:28:05;;;;;;;15.38;6.50;;;8.50;99.90;;;;;;4988744;28;20048;-66
2023/04/16 08:30:30;;;;;;;15.23;7.53;;;8.50;99.90;;;;;;4989917;28;20130;-65
2023/04/16 08:32:56;;;;;;;13.93;7.03;;;8.50;99.90;;;;;;4989499;28;20038;-69
2023/04/16 08:35:22;;;;;;;16.20;7.05;;;8.60;99.90;;;;;;4988197;28;20030;-66
2023/04/16 08:37:47;;;;;;;16.48;7.15;;;8.60;99.90;;;;;;4989932;28;20705;-66
2023/04/16 08:40:13;;;;;;;15.70;7.55;;;8.60;99.90;;;;;;4988061;28;20058;-66
2023/04/16 08:42:44;;;;;;;19.08;7.40;;;8.60;99.90;;;;;;4989416;28;20526;-65
2023/04/16 08:45:15;;;;;;;12.93;6.60;;;8.60;99.90;;;;;;4989033;28;20100;-66
2023/04/16 08:47:52;;;;;;;14.93;7.25;;;8.70;99.90;;;;;;4989588;28;20108;-64
2023/04/16 08:50:25;;;;;;;16.13;7.13;;;8.70;99.90;;;;;;4988003;28;20025;-66
2023/04/16 08:52:57;;;;;;;15.20;7.28;;;8.70;99.90;;;;;;4988931;28;20057;-66
2023/04/16 08:55:34;;;;;;;16.73;7.97;;;8.80;99.90;;;;;;4988873;28;20052;-66
2023/04/16 08:58:02;;;;;;;18.30;7.45;;;8.90;99.90;;;;;;4988773;28;20494;-68
2023/04/16 09:00:30;;;;;;;15.60;7.25;;;8.90;99.90;;;;;;4989295;28;20033;-66
2023/04/16 09:02:56;;;;;;;14.45;7.47;;;8.90;99.90;;;;;;4989174;28;20502;-65
2023/04/16 09:05:24;;;;;;;16.02;8.38;;;8.90;99.90;;;;;;4987566;28;20100;-65
2023/04/16 09:07:51;;;;;;;14.73;7.05;;;8.90;99.90;;;;;;4989378;28;20077;-65
2023/04/16 09:10:17;;;;;;;17.40;8.05;;;8.90;99.90;;;;;;4988272;28;20470;-64
2023/04/16 09:12:43;;;;;;;16.85;7.68;;;8.80;99.90;;;;;;4988232;28;20049;-66
2023/04/16 09:15:11;;;;;;;16.60;7.10;;;8.80;99.90;;;;;;4988289;28;20701;-65
2023/04/16 09:17:36;;;;;;;16.33;7.78;;;8.90;99.90;;;;;;4989360;28;20030;-65
2023/04/16 09:20:10;;;;;;;18.02;7.72;;;8.90;99.90;;;;;;4987588;28;20049;-68
2023/04/16 09:22:36;;;;;;;13.98;7.18;;;8.90;99.90;;;;;;4989356;28;20107;-65
2023/04/16 09:25:02;;;;;;;16.30;7.85;;;8.80;99.90;;;;;;4987936;28;20033;-68
2023/04/16 09:27:28;;;;;;;16.35;7.68;;;8.80;99.90;;;;;;4989164;28;20374;-65
2023/04/16 09:29:54;;;;;;;14.95;7.13;;;8.80;99.90;;;;;;4971722;28;20046;-66
2023/04/16 09:32:25;;;;;;;14.13;7.28;;;8.80;99.90;;;;;;4982412;28;20018;-66
2023/04/16 09:34:55;;;;;;;13.52;6.35;;;8.90;99.90;;;;;;4987777;28;20125;-66
2023/04/16 09:37:20;;;;;;;13.85;6.75;;;8.90;99.90;;;;;;4988133;28;20118;-66
2023/04/16 09:39:57;;;;;;;17.33;6.78;;;8.80;99.90;;;;;;4988755;28;20054;-65
2023/04/16 09:42:28;;;;;;;14.48;6.97;;;8.80;99.90;;;;;;4987965;28;20699;-65
2023/04/16 09:44:55;;;;;;;12.65;6.45;;;8.70;99.90;;;;;;4987006;28;20100;-66
2023/04/16 09:47:21;;;;;;;11.32;6.05;;;8.70;99.90;;;;;;4968758;28;20031;-66
2023/04/16 09:49:47;;;;;;;12.20;6.13;;;8.70;99.90;;;;;;4980532;28;20034;-65
2023/04/16 09:52:17;;;;;;;12.35;6.30;;;8.70;99.90;;;;;;4970737;28;20117;-66
2023/04/16 09:54:51;;;;;;;12.30;6.20;;;8.70;99.90;;;;;;4988744;28;20031;-65
2023/04/16 09:57:22;;;;;;;14.93;6.97;;;8.70;99.90;;;;;;4970498;28;20057;-65
2023/04/16 09:59:52;;;;;;;14.07;6.68;;;8.70;99.90;;;;;;4988816;28;20030;-65
2023/04/16 10:02:18;;;;;;;14.23;6.30;;;8.70;99.90;;;;;;4988054;28;20030;-65
2023/04/16 10:04:49;;;;;;;14.27;6.75;;;8.70;99.90;;;;;;4986739;28;20611;-65
2023/04/16 10:07:15;;;;;;;12.95;5.85;;;8.70;99.90;;;;;;4978898;28;20058;-65
2023/04/16 10:09:41;;;;;;;10.73;5.80;;;8.70;99.90;;;;;;4988002;28;20058;-65
2023/04/16 10:12:07;;;;;;;10.95;6.20;;;8.70;99.90;;;;;;4987904;28;20486;-65
2023/04/16 10:14:33;;;;;;;11.55;5.82;;;8.70;99.90;;;;;;4988760;28;20109;-64
2023/04/16 10:16:59;;;;;;;11.45;5.70;;;8.80;99.90;;;;;;4988652;28;20030;-65
2023/04/16 10:19:26;;;;;;;9.50;5.10;;;8.90;99.90;;;;;;4986675;28;20026;-65
2023/04/16 10:21:54;;;;;;;11.65;5.25;;;8.90;99.90;;;;;;4988943;28;20031;-65
2023/04/16 10:24:20;;;;;;;10.20;5.53;;;8.90;99.90;;;;;;4987753;28;20053;-65
2023/04/16 10:26:47;;;;;;;9.90;5.07;;;8.90;99.90;;;;;;4986809;28;20468;-66
2023/04/16 10:29:13;;;;;;;10.38;4.95;;;8.90;99.90;;;;;;4987633;28;20038;-66
2023/04/16 10:31:40;;;;;;;8.95;4.50;;;8.90;99.90;;;;;;4988710;28;20041;-65
2023/04/16 10:34:08;;;;;;;8.77;4.63;;;8.90;99.90;;;;;;4986812;28;20028;-68
2023/04/16 10:36:38;;;;;;;11.40;4.47;;;8.90;99.90;;;;;;4991286;28;20729;-64
2023/04/16 10:39:12;;;;;;;12.90;5.60;;;9.00;99.90;;;;;;4991770;28;20662;-69
2023/04/16 10:41:38;;;;;;;11.18;5.95;;;8.90;99.90;;;;;;4991298;28;20117;-66
2023/04/16 10:44:08;;;;;;;11.98;5.90;;;8.90;99.90;;;;;;4991871;28;20109;-69
2023/04/16 10:46:40;;;;;;;13.60;6.18;;;8.80;99.90;;;;;;4991178;28;20030;-63
2023/04/16 10:49:22;;;;;;;13.40;6.45;;;8.90;99.90;;;;;;4991073;28;20053;-67
2023/04/16 10:52:06;;;;;;;12.98;6.10;;;8.90;99.90;;;;;;4991545;28;20045;-64
2023/04/16 10:54:35;;;;;;;12.23;6.03;;;9.00;99.90;;;;;;4991035;28;20026;-64
2023/04/16 10:57:16;;;;;;;14.57;6.22;;;8.90;99.90;;;;;;4991756;28;20039;-64
2023/04/16 10:59:43;;;;;;;13.48;6.70;;;8.90;99.90;;;;;;4991813;28;20038;-65
2023/04/16 11:02:16;;;;;;;14.90;6.90;;;9.00;99.90;;;;;;4990714;28;20096;-68
2023/04/16 11:04:44;;;;;;;14.07;6.65;;;9.00;99.90;;;;;;4991214;28;20382;-64
2023/04/16 11:07:19;;;;;;;15.93;6.70;;;9.10;99.90;;;;;;4990647;28;20043;-67
2023/04/16 11:10:01;;;;;;;13.57;6.30;;;9.10;99.90;;;;;;4989557;28;20065;-66
2023/04/16 11:12:36;;;;;;;13.15;5.55;;;9.10;99.90;;;;;;4990514;28;20642;-64
2023/04/16 11:15:05;;;;;;;13.63;6.25;;;9.10;99.90;;;;;;4991515;28;20546;-65
2023/04/16 11:17:43;;;;;;;12.05;5.75;;;9.00;99.90;;;;;;4990546;28;20042;-65
2023/04/16 11:20:29;;;;;;;12.32;6.05;;;8.90;99.90;;;;;;4990652;28;20038;-67
2023/04/16 11:22:56;;;;;;;12.07;5.65;;;8.90;99.90;;;;;;4990904;28;20050;-67
2023/04/16 11:25:30;;;;;;;13.70;6.22;;;8.90;99.90;;;;;;4989630;28;20367;-66
2023/04/16 11:27:59;;;;;;;10.75;4.97;;;8.90;99.90;;;;;;4991309;28;20478;-65
2023/04/16 11:30:29;;;;;;;12.95;5.85;;;8.90;99.90;;;;;;4990318;28;20070;-66
2023/04/16 11:32:55;;;;;;;;;;;8.90;99.90;;;;;;4991576;28;20042;-65
2023/04/16 11:35:21;;;;;;;11.65;5.65;;;8.90;99.90;;;;;;4989912;28;19916;-65
2023/04/16 11:37:49;;;;;;;9.88;4.82;;;8.90;99.90;;;;;;4991216;28;20106;-66
2023/04/16 11:40:15;;;;;;;8.98;4.72;;;8.90;99.90;;;;;;4988539;28;20038;-67
2023/04/16 11:42:41;;;;;;;8.38;4.68;;;8.90;99.90;;;;;;4989395;28;20042;-66
2023/04/16 11:45:11;;;;;;;7.35;3.75;;;8.90;99.90;;;;;;4990641;28;20467;-68
2023/04/16 11:47:50;;;;;;;7.00;3.50;;;8.90;99.90;;;;;;4989021;28;20045;-66
2023/04/16 11:50:24;;;;;;;7.05;3.53;;;8.90;99.90;;;;;;4989997;28;20030;-64
2023/04/16 11:52:51;;;;;;;6.55;3.20;;;8.90;99.90;;;;;;4990859;28;20038;-66
2023/04/16 11:55:18;;;;;;;6.20;3.13;;;8.90;99.90;;;;;;4988967;28;20030;-65
2023/04/16 11:57:44;;;;;;;6.20;3.20;;;8.90;99.90;;;;;;4990722;28;20026;-65
2023/04/16 12:00:14;;;;;;;6.22;3.17;;;8.90;99.90;;;;;;4990328;28;20030;-68
2023/04/16 12:02:44;;;;;;;;;;;8.90;99.90;;;;;;4990824;28;20038;-64
2023/04/16 12:05:27;;;;;;;5.38;2.90;;;8.90;99.90;;;;;;4988826;28;20363;-69
2023/04/16 12:07:54;;;;;;;7.95;3.53;;;8.90;99.90;;;;;;4990384;28;20050;-64
2023/04/16 12:10:19;;;;;;;6.50;3.38;;;8.90;99.90;;;;;;4988939;28;20066;-65
2023/04/16 12:12:45;;;;;;;6.50;3.35;;;8.90;99.90;;;;;;4990541;28;20062;-66
2023/04/16 12:15:11;;;;;;;6.40;3.00;;;8.90;99.90;;;;;;4989923;28;20489;-69
2023/04/16 12:17:37;;;;;;;5.70;2.83;;;8.90;99.90;;;;;;4989290;28;20395;-66
2023/04/16 12:20:11;;;;;;;5.88;3.30;;;8.90;99.90;;;;;;4989840;28;20030;-66
2023/04/16 12:22:38;;;;;;;6.68;3.20;;;9.00;99.90;;;;;;4989670;28;20081;-65
2023/04/16 12:25:11;;;;;;;6.30;3.30;;;9.00;99.90;;;;;;4989396;28;20057;-66
2023/04/16 12:27:44;;;;;;;5.05;2.75;;;9.10;99.90;;;;;;4989722;28;20019;-66
2023/04/16 12:30:10;;;;;;;6.50;3.03;;;9.10;99.90;;;;;;4989872;28;20048;-69
2023/04/16 12:32:36;;;;;;;5.38;2.80;;;9.10;99.90;;;;;;4989437;28;20032;-66
2023/04/16 12:35:02;;;;;;;6.97;3.05;;;9.00;99.90;;;;;;4988967;28;20446;-66
2023/04/16 12:37:28;;;;;;;6.00;3.08;;;9.10;99.90;;;;;;4986613;28;20034;-66
2023/04/16 12:39:54;;;;;;;8.85;3.13;;;9.00;99.90;;;;;;4988637;28;20132;-66
2023/04/16 12:42:20;;;;;;;4.97;2.65;;;9.00;99.90;;;;;;4972975;28;20084;-66
2023/04/16 12:44:45;;;;;;;7.43;3.70;;;9.00;99.90;;;;;;4989905;28;20041;-66
2023/04/16 12:47:11;;;;;;;7.20;3.40;;;9.00;99.90;;;;;;4987900;28;20026;-69
2023/04/16 12:49:37;;;;;;;6.45;3.22;;;9.00;99.90;;;;;;4989716;28;20066;-64
2023/04/16 12:52:03;;;;;;;5.25;3.00;;;9.10;99.90;;;;;;4989431;28;20113;-65